x

South Kodiak - 310nm Ssw Of Kodiak, Ak (46066) Wave Buoy

7:50am - Tue 21st Feb 2017 All times are UTC.

  • Sig Wave height 4.6ft
  • Swell Direction
  • Peak Period 8s
  • Average Period 6s
  • Wind
    13mph, 20mph gusts
  • Sea Temp 38°f
  • Air Temp 32°f
  • Sea Pressure 1019.1mb

More Historic Weather Station data

Upgrade to MSW Pro to gain access to the past 30 days of data for over 8000 Wavebouys and Weather Stations around the globe.

Join Pro

Comparision Forecast

View Surf forecast
   
Tue 02/21 7:50am 4.5ft 8s 6s 13 20 mph 1019.1mb 38f 32f
6:50am 4.5ft 9s 6s 11 13 mph 1019.4mb 38f 31f
5:50am 4.5ft 7s 6s 9 11 mph 1019.3mb 38f 31f
4:50am 5ft 7s 6s 7 9 mph 1019.4mb 38f 30f
3:50am 5ft 9s 6s 4 7 mph 1019.3mb 38f 30f
2:50am 5.5ft 8s 6s 2 4 mph 1019.2mb 38f 31f
1:50am 5ft 7s 6s 7 9 mph 1018.9mb 38f 31f
12:50am 5ft 8s 6s 4 7 mph 1018.9mb 38f 31f
Mon 02/20 11:50pm 5ft 9s 6s 4 7 mph 1018.5mb 38f 30f
10:50pm 5.5ft 8s 6s 7 11 mph 1018.9mb 38f 30f
9:50pm 5ft 10s 6s 9 11 mph 1018.9mb 38f 30f
8:50pm 5.5ft 8s 6s 11 16 mph 1018.5mb 38f 30f
7:50pm 6ft 9s 6s 13 20 mph 1018mb 38f 30f
6:50pm 6ft 7s 6s 16 20 mph 1017.2mb 38f 31f
5:50pm 7ft 6s 6s 16 20 mph 1015.9mb 38f 32f
4:50pm 7ft 7s 6s 18 22 mph 1015.1mb 38f 32f
3:50pm 7ft 7s 6s 20 25 mph 1014.1mb 38f 32f
2:50pm 7.5ft 7s 6s 20 25 mph 1013.6mb 38f 33f
1:50pm 7.5ft 7s 6s 20 25 mph 1013mb 38f 34f
12:50pm 7.5ft 7s 6s 18 22 mph 1012.4mb 38f 34f
11:50am 8ft 7s 6s 22 27 mph 1011.6mb 38f 34f
10:50am 8ft 7s 6s 22 27 mph 1011.1mb 38f 33f
9:50am 8.5ft 7s 6s 22 27 mph 1010.8mb 38f 33f
8:50am 9ft 7s 6s 25 29 mph 1010.1mb 38f 33f
7:50am 8.5ft 7s 6s 25 29 mph 1009.7mb 38f 33f
6:50am 8.5ft 7s 6s 25 27 mph 1009mb 38f 34f
5:50am 8.5ft 7s 6s 27 34 mph 1007.9mb 38f 34f
4:50am 8ft 6s 6s 25 29 mph 1007.3mb 38f 34f
3:50am 8ft 6s 6s 25 31 mph 1006.6mb 38f 34f
2:50am 8ft 10s 6s 25 29 mph 1005.9mb 38f 33f
1:50am 8ft 10s 6s 25 29 mph 1005.4mb 38f 34f
Sun 02/19 11:50pm 7.5ft 10s 6s 16 20 mph 1004.9mb 38f 34f
10:50pm 8ft 10s 6s 16 20 mph 1004.6mb 38f 34f
9:50pm 7.5ft 11s 7s 20 27 mph 1004.3mb 38f 34f
8:50pm 7ft 10s 6s 9 11 mph 1004.6mb 38f 33f
7:50pm 6.5ft 11s 6s 11 16 mph 1004.4mb 38f 33f
6:50pm 6.5ft 11s 6s 13 18 mph 1004.1mb 38f 33f
5:50pm 6.5ft 10s 6s 16 20 mph 1003.8mb 38f 33f
4:50pm 7ft 11s 7s 13 16 mph 1003.5mb 38f 33f
3:50pm 6ft 11s 6s 16 20 mph 1003.6mb 38f 34f
2:50pm 7ft 9s 7s 18 22 mph 1003.5mb 38f 37f
1:50pm 6ft 8s 6s 16 20 mph 1004mb 38f 37f
12:50pm 6ft 11s 7s 16 20 mph 1004.3mb 38f 36f
11:50am 7ft 10s 8s 16 18 mph 1004.5mb 38f 36f
10:50am 6.5ft 10s 7s 7 11 mph 1005.1mb 38f 33f
9:50am 7ft 11s 8s 16 18 mph 1004.9mb 38f 35f
8:50am 6ft 9s 8s 7 9 mph 1005.3mb 38f 34f
7:50am 6ft 11s 8s 7 9 mph 1005.3mb 38f 34f
6:50am 6ft 10s 8s 11
mph
1005.2mb 38f 35f
5:50am 7ft 11s 8s 11 13 mph 1005.1mb 39f 35f
4:50am 7ft 11s 9s 11 13 mph 1005.1mb 38f 35f
3:50am 6.5ft 12s 9s 7 9 mph 1004.9mb 38f 34f
2:50am 7ft 11s 9s 4 7 mph 1004.9mb 38f 33f
1:50am 6ft 13s 8s 2 4 mph 1004.9mb 38f 33f
12:50am 6ft 11s 8s 4 7 mph 1004.7mb 38f 33f
Sat 02/18 11:50pm 5ft 11s 8s 7
mph
1004.6mb 38f 35f
10:50pm 5ft 11s 8s 7 9 mph 1004.7mb 38f 35f
9:50pm 5ft 13s 8s 9 11 mph 1004.8mb 38f 34f
8:50pm 5ft 11s 8s 11 13 mph 1004.6mb 38f 35f
7:50pm 5ft 12s 7s 11 13 mph 1004.2mb 38f 36f
6:50pm 5.5ft 12s 7s 11 13 mph 1003.7mb 38f 34f
5:50pm 5ft 12s 7s 9 13 mph 1003.3mb 38f 35f
4:50pm 5.5ft 12s 7s 9 11 mph 1002.8mb 38f 35f
3:50pm 6ft 13s 8s 11 13 mph 1002.6mb 38f 35f
2:50pm 6ft 13s 8s 9 11 mph 1002.5mb 39f 36f
1:50pm 6ft 9s 8s 9 11 mph 1002.2mb 39f 36f
12:50pm 5.5ft 10s 8s 4
mph
1002.2mb 39f 36f
11:50am 5.5ft 8s 8s 4 7 mph 1001.9mb 39f 36f
10:50am 5ft 11s 8s 7
mph
1001.6mb 39f 36f
9:50am 5ft 10s 7s 4 7 mph 1001.4mb 39f 37f
8:50am 5ft 10s 8s 4 7 mph 1001.1mb 39f 36f
7:50am 5.5ft 9s 7s 7 9 mph 1000.8mb 39f 35f
6:50am 5.5ft 9s 7s 9 13 mph 1000.5mb 39f 35f
5:50am 6ft 11s 7s 11 16 mph 1000mb 39f 36f
4:50am 6.5ft 11s 7s 9 11 mph 999.9mb 39f 37f
3:50am 6ft 9s 7s 7 9 mph 999.4mb 39f 37f
2:50am 6.5ft 9s 7s 7 9 mph 999.1mb 39f 38f
1:50am 7ft 10s 7s 7
mph
999.2mb 39f 38f
12:50am 7ft 9s 7s 4 7 mph 999.3mb 39f 38f
Fri 02/17 11:50pm 6.5ft 11s 7s  -  2 mph 999.5mb 39f 40f
10:50pm 7ft 10s 7s 7 11 mph 999.8mb 39f 37f
9:50pm 6ft 10s 7s 4 7 mph 1000.2mb 39f 38f
8:50pm 7ft 8s 7s 4 7 mph 1000.3mb 39f 37f
7:50pm 7.5ft 10s 7s 4 7 mph 1000.3mb 39f 35f
6:50pm 7ft 9s 7s 9 11 mph 1000mb 39f 38f
5:50pm 7ft 10s 7s 9 11 mph 999.5mb 39f 37f
4:50pm 7ft 11s 7s 11 16 mph 999.1mb 39f 36f
3:50pm 8ft 10s 7s 13 18 mph 998.8mb 39f 37f
2:50pm 9ft 9s 7s 13 18 mph 998.7mb 39f 37f
1:50pm 8.5ft 10s 7s 18 22 mph 998.6mb 39f 37f
12:50pm 9ft 10s 7s 16 22 mph 998.6mb 39f 37f
11:50am 9ft 10s 7s 18 22 mph 998.3mb 39f 37f
10:50am 9ft 9s 7s 16 18 mph 997.8mb 39f 37f
9:50am 8ft 9s 7s 13 18 mph 997.5mb 39f 37f